メインページ
METAR-TAF:

METAR-TAF

空港 :

バンクーバー, ブリティッシュコロンビア州, カナダ

バンクーバー国際空港

緯度: 49-11N, 経度: 123-10W, 海抜: 3m

現時点の気象観測

当レポートは34分前の01:00(UTC)に作成
南東の風 12kt、最大18ktの突風を伴う
気温 10°C
湿度 87%
気圧 1008 hPa
視程: 19.3km
高度2500ftの千切れ雲あり
高度4700ftの千切れ雲あり
高度9000ftの曇り
弱いにわか雨

METAR: CYVR 240100Z 13012G18KT 12SM -SHRA BKN025 BKN047 OVC090 10/08 A2978 RMK SC6SC1AS1 VIS N 8 SLP086

時間: 18:34 (01:34 UTC)

予報

当レポートは1時間56分前の23:38(UTC)に作成
予報は24日の 00時(UTC)から 25日の 06時(UTC)まで有効
東/南東の風 10kt、最大20ktの突風を伴う
視程: 10km
高度2000ftの雲は散在している
高度3000ftの千切れ雲あり
高度7000ftの曇り
24日の 00時(UTC)から 24日の 08時(UTC)まで一時的に
視程: 10km
高度1500ftの雲は散在している
高度2000ftの千切れ雲あり
高度7000ftの曇り
弱いにわか雨
24日の 0800時(UTC)から
の風 10kt
視程: 10km
高度2000ftの雲は散在している
高度4000ftの千切れ雲あり
24日の 08時(UTC)から 24日の 18時(UTC)まで一時的に
視程: 8.0km
高度700ftの雲はほとんどない
高度2000ftの千切れ雲あり
高度4000ftの曇り
弱いにわか雨, 靄
24日の 1800時(UTC)から
西の風 5kt
視程: 10km
高度700ftの雲はほとんどない
高度2000ftの雲は散在している
高度4000ftの千切れ雲あり
24日の 2100時(UTC)から
西の風 12kt
視程: 10km
高度4000ftの雲はほとんどない

TAF: CYVR 232338Z 2400/2506 12010G20KT P6SM SCT020 BKN030 OVC070 TEMPO 2400/2408 P6SM -SHRA SCT015 BKN020 OVC070 FM240800 09010KT P6SM SCT020 BKN040 TEMPO 2408/2418 5SM -SHRA BR FEW007 BKN020 OVC040 FM241800 28005KT P6SM FEW007 SCT020 BKN040 FM242100 28012KT P6SM FEW040 RMK NXT FCST BY 240300Z

4,000以上の空港の気象観測と天気予報(METAR報とTAF報)

利用可能な観測所は地図上に黄色い丸と赤い丸で示す。

丸の上にカーソルを重ねると観測所名を参照できる。

次にクリックすると気象観測と天気予報を参照できる。

マップの切り替え:黒色「×」印の緑ボタンをクリックして拡大、「-」印の緑ボタンをクリックして縮小、緑色の三角印をクリックして隣りの地図に切り替え


METAR-TAF: